createdAt,value
2022-10-16T00:02:24.635Z,100250.60
2022-10-16T00:07:28.645Z,100255.39
2022-10-16T00:12:32.067Z,100255.22
2022-10-16T00:17:35.319Z,100259.23
2022-10-16T00:22:38.592Z,100257.64
2022-10-16T00:27:41.940Z,100257.71
2022-10-16T00:32:45.182Z,100257.68
2022-10-16T00:37:48.408Z,100256.14
2022-10-16T00:42:51.658Z,100258.79
2022-10-16T00:48:00.723Z,100255.27
2022-10-16T00:53:13.006Z,100255.20
2022-10-16T00:58:17.114Z,100252.54
2022-10-16T01:03:26.713Z,100246.77
2022-10-16T01:08:46.615Z,100249.75
2022-10-16T01:13:55.293Z,100249.29
2022-10-16T01:19:15.919Z,100247.27
2022-10-16T01:24:41.195Z,100245.85
2022-10-16T01:29:57.002Z,100256.43
2022-10-16T01:35:13.739Z,100265.02
2022-10-16T01:40:18.934Z,100260.83
2022-10-16T01:45:22.851Z,100249.86
2022-10-16T01:50:26.617Z,100252.95
2022-10-16T01:55:34.283Z,100254.61
2022-10-16T02:00:39.934Z,100257.95
2022-10-16T02:05:54.350Z,100267.00
2022-10-16T02:10:59.160Z,100266.09
2022-10-16T02:16:02.437Z,100268.91
2022-10-16T02:21:17.955Z,100277.80
2022-10-16T02:26:30.070Z,100277.63
2022-10-16T02:31:36.003Z,100280.06
2022-10-16T02:36:40.683Z,100285.33
2022-10-16T02:41:43.949Z,100294.77
2022-10-16T02:46:47.302Z,100295.42
2022-10-16T02:51:50.431Z,100287.98
2022-10-16T02:56:53.614Z,100285.70
2022-10-16T03:01:56.841Z,100294.26
2022-10-16T03:07:00.241Z,100299.46
2022-10-16T03:12:03.638Z,100294.89
2022-10-16T03:17:07.481Z,100308.61
2022-10-16T03:22:10.775Z,100307.29
2022-10-16T03:27:14.005Z,100317.91
2022-10-16T03:32:17.355Z,100312.23
2022-10-16T03:37:20.639Z,100299.01
2022-10-16T03:42:23.863Z,100306.36
2022-10-16T03:47:27.392Z,100319.36
2022-10-16T03:52:31.691Z,100327.09
2022-10-16T03:57:34.976Z,100322.25
2022-10-16T04:02:38.188Z,100320.79
2022-10-16T04:07:41.433Z,100326.92
2022-10-16T04:12:44.647Z,100329.01
2022-10-16T04:17:48.290Z,100333.02
2022-10-16T04:22:51.507Z,100337.38
2022-10-16T04:27:55.380Z,100333.52
2022-10-16T04:32:58.636Z,100332.02
2022-10-16T04:38:01.873Z,100339.29
2022-10-16T04:43:05.919Z,100351.10
2022-10-16T04:48:09.153Z,100349.42
2022-10-16T04:53:12.402Z,100347.58
2022-10-16T04:58:15.539Z,100349.52
2022-10-16T05:03:18.832Z,100352.50
2022-10-16T05:08:22.278Z,100357.66
2022-10-16T05:13:25.566Z,100356.43
2022-10-16T05:18:30.025Z,100364.23
2022-10-16T05:23:35.336Z,100374.86
2022-10-16T05:28:38.635Z,100371.52
2022-10-16T05:33:42.378Z,100372.67
2022-10-16T05:38:47.161Z,100374.98
2022-10-16T05:43:53.020Z,100383.97
2022-10-16T05:48:57.397Z,100378.92
2022-10-16T05:54:00.717Z,100384.10
2022-10-16T05:59:07.483Z,100380.22
2022-10-16T06:09:22.360Z,100405.92
2022-10-16T06:14:25.908Z,100408.02
2022-10-16T06:19:29.240Z,100411.75
2022-10-16T06:24:32.609Z,100411.72
2022-10-16T06:29:46.344Z,100419.48
2022-10-16T06:34:55.179Z,100431.89
2022-10-16T06:39:58.462Z,100430.11
2022-10-16T06:45:05.422Z,100436.45
2022-10-16T06:50:11.657Z,100443.95
2022-10-16T06:55:18.423Z,100448.95
2022-10-16T07:05:25.934Z,100462.81
2022-10-16T07:10:29.123Z,100473.42
2022-10-16T07:15:33.525Z,100479.45
2022-10-16T07:20:36.836Z,100485.42
2022-10-16T07:25:40.436Z,100489.13
2022-10-16T07:30:46.880Z,100482.89
2022-10-16T07:35:56.498Z,100490.23
2022-10-16T07:41:04.496Z,100492.44
2022-10-16T07:46:11.841Z,100492.89
2022-10-16T07:51:17.610Z,100482.23
2022-10-16T07:56:22.054Z,100476.31
2022-10-16T08:01:28.617Z,100484.29
2022-10-16T08:06:37.016Z,100485.60
2022-10-16T08:11:40.473Z,100489.93
2022-10-16T08:16:43.622Z,100496.99
2022-10-16T08:21:51.917Z,100502.30
2022-10-16T08:26:55.857Z,100510.45
2022-10-16T08:32:02.096Z,100509.09
2022-10-16T08:37:05.510Z,100513.50
2022-10-16T08:42:14.426Z,100517.04
2022-10-16T08:47:24.730Z,100521.65
2022-10-16T08:52:32.279Z,100531.59
2022-10-16T08:57:35.562Z,100535.14
2022-10-16T09:02:40.540Z,100540.13
2022-10-16T09:08:13.335Z,100539.63
2022-10-16T09:13:28.502Z,100537.83
2022-10-16T09:19:06.505Z,100546.36
2022-10-16T09:24:18.198Z,100545.08
2022-10-16T09:29:23.005Z,100542.60
2022-10-16T09:34:33.610Z,100546.90
2022-10-16T09:39:55.359Z,100554.67
2022-10-16T09:45:02.535Z,100552.98
2022-10-16T09:50:27.707Z,100553.73
2022-10-16T09:55:33.037Z,100547.67
2022-10-16T10:00:43.462Z,100548.27
2022-10-16T10:05:50.250Z,100545.55
2022-10-16T10:10:58.827Z,100540.86
2022-10-16T10:16:04.142Z,100535.74
2022-10-16T10:21:16.136Z,100538.55
2022-10-16T10:26:22.530Z,100543.69
2022-10-16T10:31:36.648Z,100545.35
2022-10-16T10:36:41.724Z,100548.23
2022-10-16T10:42:00.389Z,100549.96
2022-10-16T10:47:06.657Z,100546.88
2022-10-16T10:52:33.094Z,100545.16
2022-10-16T10:58:00.795Z,100545.81
2022-10-16T11:03:43.432Z,100540.67
2022-10-16T11:08:51.316Z,100543.30
2022-10-16T11:14:04.277Z,100543.09
2022-10-16T11:19:40.758Z,100532.13
2022-10-16T11:24:48.491Z,100523.35
2022-10-16T11:30:04.880Z,100522.79
2022-10-16T11:35:18.609Z,100519.68
2022-10-16T11:40:36.956Z,100522.20
2022-10-16T11:45:44.431Z,100531.95
2022-10-16T11:51:09.546Z,100522.45
2022-10-16T11:56:15.292Z,100519.44
2022-10-16T12:01:36.639Z,100513.15
2022-10-16T12:07:07.092Z,100526.68
2022-10-16T12:12:38.862Z,100529.70
2022-10-16T12:17:42.502Z,100532.38
2022-10-16T12:22:51.919Z,100547.23
2022-10-16T12:27:59.614Z,100565.12
2022-10-16T12:33:23.398Z,100570.54
2022-10-16T12:38:39.108Z,100566.52
2022-10-16T12:43:49.294Z,100576.49
2022-10-16T12:49:16.344Z,100582.20
2022-10-16T12:54:42.964Z,100579.40
2022-10-16T13:00:47.294Z,100585.17
2022-10-16T13:06:07.820Z,100593.05
2022-10-16T13:11:21.364Z,100597.27
2022-10-16T13:16:32.299Z,100598.55
2022-10-16T13:22:22.937Z,100601.19
2022-10-16T13:27:38.445Z,100600.38
2022-10-16T13:32:42.001Z,100608.37
2022-10-16T13:37:48.515Z,100612.99
2022-10-16T13:42:53.909Z,100612.96
2022-10-16T13:48:04.803Z,100615.87
2022-10-16T13:53:16.929Z,100612.39
2022-10-16T13:58:21.041Z,100610.14
2022-10-16T14:03:25.595Z,100620.92
2022-10-16T14:08:31.007Z,100631.38
2022-10-16T14:13:45.268Z,100638.77
2022-10-16T14:18:56.344Z,100640.83
2022-10-16T14:24:13.656Z,100645.52
2022-10-16T14:29:21.117Z,100650.69
2022-10-16T14:34:38.770Z,100643.91
2022-10-16T14:39:45.793Z,100642.06
2022-10-16T14:44:56.806Z,100643.31
2022-10-16T14:50:01.145Z,100652.02
2022-10-16T14:55:05.529Z,100658.94
2022-10-16T15:00:18.407Z,100661.70
2022-10-16T15:05:28.414Z,100665.96
2022-10-16T15:10:44.682Z,100668.27
2022-10-16T15:15:50.465Z,100669.73
2022-10-16T15:20:54.066Z,100676.69
2022-10-16T15:25:58.133Z,100678.84
2022-10-16T15:31:01.548Z,100673.95
2022-10-16T15:36:05.215Z,100666.33
2022-10-16T15:41:09.018Z,100674.75
2022-10-16T15:46:18.808Z,100680.77
2022-10-16T15:51:28.416Z,100687.35
2022-10-16T15:56:34.818Z,100691.20
2022-10-16T16:01:43.483Z,100702.08
2022-10-16T16:06:52.518Z,100709.06
2022-10-16T16:12:03.838Z,100709.09
2022-10-16T16:22:54.349Z,100727.73
2022-10-16T16:28:06.978Z,100736.27
2022-10-16T16:33:15.251Z,100743.85
2022-10-16T16:38:21.032Z,100744.64
2022-10-16T16:43:26.138Z,100750.62
2022-10-16T16:48:30.780Z,100765.27
2022-10-16T16:53:36.197Z,100776.99
2022-10-16T16:58:44.661Z,100785.74
2022-10-16T17:03:53.317Z,100780.70
2022-10-16T17:08:56.838Z,100791.48
2022-10-16T17:14:17.831Z,100797.62
2022-10-16T17:19:24.062Z,100806.15
2022-10-16T17:24:29.286Z,100814.43
2022-10-16T17:29:40.873Z,100820.13
2022-10-16T17:35:07.525Z,100829.32
2022-10-16T17:40:17.013Z,100831.84
2022-10-16T17:45:21.779Z,100836.55
2022-10-16T17:50:30.866Z,100842.45
2022-10-16T17:55:44.504Z,100847.17
2022-10-16T18:00:52.953Z,100851.52
2022-10-16T18:05:59.979Z,100856.46
2022-10-16T18:11:11.659Z,100854.91
2022-10-16T18:16:25.900Z,100866.21
2022-10-16T18:21:31.792Z,100870.77
2022-10-16T18:26:38.182Z,100870.26
2022-10-16T18:31:53.748Z,100877.34
2022-10-16T18:37:11.010Z,100884.05
2022-10-16T18:42:16.253Z,100887.90
2022-10-16T18:47:25.131Z,100893.36
2022-10-16T18:52:32.839Z,100899.90
2022-10-16T18:57:39.086Z,100905.91
2022-10-16T19:02:46.741Z,100912.52
2022-10-16T19:07:57.746Z,100918.99
2022-10-16T19:13:08.904Z,100928.20
2022-10-16T19:18:26.729Z,100941.67
2022-10-16T19:23:38.106Z,100946.70
2022-10-16T19:28:47.381Z,100950.99
2022-10-16T19:34:24.420Z,100947.39
2022-10-16T19:39:41.653Z,100960.92
2022-10-16T19:44:46.731Z,100970.91
2022-10-16T19:49:57.029Z,100975.81
2022-10-16T19:55:16.987Z,100988.95
2022-10-16T20:00:25.963Z,100994.04
2022-10-16T20:05:34.067Z,100998.42
2022-10-16T20:10:46.555Z,100996.73
2022-10-16T20:16:15.383Z,101002.55
2022-10-16T20:21:26.216Z,101017.33
2022-10-16T20:26:36.987Z,101017.81
2022-10-16T20:31:46.496Z,101022.71
2022-10-16T20:37:02.594Z,101031.58
2022-10-16T20:42:16.316Z,101032.06
2022-10-16T20:47:30.068Z,101036.94
2022-10-16T20:52:42.634Z,101038.92
2022-10-16T20:57:49.628Z,101039.30
2022-10-16T21:02:54.295Z,101040.09
2022-10-16T21:08:07.277Z,101040.02
2022-10-16T21:13:17.390Z,101040.39
2022-10-16T21:18:35.091Z,101038.61
2022-10-16T21:23:59.345Z,101045.59
2022-10-16T21:29:16.073Z,101048.20
2022-10-16T21:34:31.895Z,101050.69
2022-10-16T21:39:45.837Z,101053.05
2022-10-16T21:44:51.708Z,101056.26
2022-10-16T21:50:12.034Z,101066.88
2022-10-16T21:55:44.693Z,101073.06
2022-10-16T22:01:23.149Z,101087.31
2022-10-16T22:06:41.476Z,101093.27
2022-10-16T22:12:07.773Z,101099.36
2022-10-16T22:17:35.197Z,101098.64
2022-10-16T22:22:38.607Z,101093.05
2022-10-16T22:27:53.851Z,101088.86
2022-10-16T22:33:00.407Z,101085.40
2022-10-16T22:38:08.404Z,101081.66
2022-10-16T22:43:11.951Z,101088.44
2022-10-16T22:48:15.467Z,101081.65
2022-10-16T22:53:22.779Z,101085.67
2022-10-16T22:58:26.343Z,101086.11
2022-10-16T23:03:38.559Z,101081.22
2022-10-16T23:08:43.233Z,101078.75
2022-10-16T23:13:46.944Z,101076.22
2022-10-16T23:18:50.822Z,101089.52
2022-10-16T23:23:58.930Z,101093.74
2022-10-16T23:29:02.774Z,101111.95
2022-10-16T23:34:11.238Z,101132.31
2022-10-16T23:39:14.674Z,101152.46
2022-10-16T23:44:18.207Z,101148.60
2022-10-16T23:49:21.987Z,101144.64
2022-10-16T23:54:30.227Z,101147.80
2022-10-16T23:59:38.081Z,101141.55
